sensor_id;sensor_type;location;lat;lon;timestamp;pressure;altitude;pressure_sealevel;temperature;humidity
60355;BME280;46198;51.464;-0.066;2023-04-22T00:01:18;100711.59;;;6.74;100.00
60355;BME280;46198;51.464;-0.066;2023-04-22T00:03:48;100700.81;;;6.74;100.00
60355;BME280;46198;51.464;-0.066;2023-04-22T00:06:16;100700.75;;;6.67;100.00
60355;BME280;46198;51.464;-0.066;2023-04-22T00:08:44;100700.31;;;6.63;100.00
60355;BME280;46198;51.464;-0.066;2023-04-22T00:11:12;100703.03;;;6.63;100.00
60355;BME280;46198;51.464;-0.066;2023-04-22T00:13:41;100698.22;;;6.59;100.00
60355;BME280;46198;51.464;-0.066;2023-04-22T00:16:09;100697.78;;;6.55;100.00
60355;BME280;46198;51.464;-0.066;2023-04-22T00:18:37;100696.13;;;6.54;100.00
60355;BME280;46198;51.464;-0.066;2023-04-22T00:21:07;100704.78;;;6.50;100.00
60355;BME280;46198;51.464;-0.066;2023-04-22T00:23:35;100691.69;;;6.47;100.00
60355;BME280;46198;51.464;-0.066;2023-04-22T00:26:03;100696.63;;;6.43;100.00
60355;BME280;46198;51.464;-0.066;2023-04-22T00:28:31;100690.63;;;6.41;100.00
60355;BME280;46198;51.464;-0.066;2023-04-22T00:30:59;100684.97;;;6.36;100.00
60355;BME280;46198;51.464;-0.066;2023-04-22T00:33:29;100679.34;;;6.31;100.00
60355;BME280;46198;51.464;-0.066;2023-04-22T00:35:57;100673.06;;;6.24;100.00
60355;BME280;46198;51.464;-0.066;2023-04-22T00:38:26;100663.69;;;6.19;100.00
60355;BME280;46198;51.464;-0.066;2023-04-22T00:40:55;100667.63;;;6.17;100.00
60355;BME280;46198;51.464;-0.066;2023-04-22T00:43:48;100657.63;;;6.11;100.00
60355;BME280;46198;51.464;-0.066;2023-04-22T00:46:20;100664.25;;;6.08;100.00
60355;BME280;46198;51.464;-0.066;2023-04-22T00:48:48;100669.63;;;6.08;100.00
60355;BME280;46198;51.464;-0.066;2023-04-22T00:51:16;100667.69;;;6.02;100.00
60355;BME280;46198;51.464;-0.066;2023-04-22T00:53:45;100660.00;;;5.99;100.00
60355;BME280;46198;51.464;-0.066;2023-04-22T00:56:14;100661.69;;;6.00;100.00
60355;BME280;46198;51.464;-0.066;2023-04-22T00:58:42;100647.56;;;5.98;100.00
60355;BME280;46198;51.464;-0.066;2023-04-22T01:01:10;100653.34;;;5.95;100.00
60355;BME280;46198;51.464;-0.066;2023-04-22T01:03:39;100649.81;;;5.94;100.00
60355;BME280;46198;51.464;-0.066;2023-04-22T01:06:07;100645.78;;;5.90;100.00
60355;BME280;46198;51.464;-0.066;2023-04-22T01:08:35;100643.75;;;5.92;100.00
60355;BME280;46198;51.464;-0.066;2023-04-22T01:11:05;100647.44;;;5.91;100.00
60355;BME280;46198;51.464;-0.066;2023-04-22T01:13:33;100642.28;;;5.90;100.00
60355;BME280;46198;51.464;-0.066;2023-04-22T01:16:05;100633.34;;;5.89;100.00
60355;BME280;46198;51.464;-0.066;2023-04-22T01:18:34;100630.00;;;5.87;100.00
60355;BME280;46198;51.464;-0.066;2023-04-22T01:21:03;100633.72;;;5.86;100.00
60355;BME280;46198;51.464;-0.066;2023-04-22T01:23:34;100632.88;;;5.86;100.00
60355;BME280;46198;51.464;-0.066;2023-04-22T01:26:02;100627.91;;;5.83;100.00
60355;BME280;46198;51.464;-0.066;2023-04-22T01:28:30;100624.13;;;5.77;100.00
60355;BME280;46198;51.464;-0.066;2023-04-22T01:30:58;100626.63;;;5.78;100.00
60355;BME280;46198;51.464;-0.066;2023-04-22T01:33:28;100628.28;;;5.80;100.00
60355;BME280;46198;51.464;-0.066;2023-04-22T01:35:56;100630.34;;;5.77;100.00
60355;BME280;46198;51.464;-0.066;2023-04-22T01:38:24;100620.78;;;5.75;100.00
60355;BME280;46198;51.464;-0.066;2023-04-22T01:40:54;100621.63;;;5.75;100.00
60355;BME280;46198;51.464;-0.066;2023-04-22T01:43:22;100611.22;;;5.72;100.00
60355;BME280;46198;51.464;-0.066;2023-04-22T01:45:50;100620.97;;;5.73;100.00
60355;BME280;46198;51.464;-0.066;2023-04-22T01:48:18;100614.91;;;5.65;100.00
60355;BME280;46198;51.464;-0.066;2023-04-22T01:50:47;100617.38;;;5.66;100.00
60355;BME280;46198;51.464;-0.066;2023-04-22T01:53:15;100610.72;;;5.62;100.00
60355;BME280;46198;51.464;-0.066;2023-04-22T01:55:43;100610.34;;;5.65;100.00
60355;BME280;46198;51.464;-0.066;2023-04-22T01:58:13;100605.38;;;5.69;100.00
60355;BME280;46198;51.464;-0.066;2023-04-22T02:00:42;100613.69;;;5.67;100.00
60355;BME280;46198;51.464;-0.066;2023-04-22T02:03:10;100617.38;;;5.66;100.00
60355;BME280;46198;51.464;-0.066;2023-04-22T02:05:38;100616.56;;;5.66;100.00
60355;BME280;46198;51.464;-0.066;2023-04-22T02:08:07;100620.06;;;5.66;100.00
60355;BME280;46198;51.464;-0.066;2023-04-22T02:10:35;100619.69;;;5.69;100.00
60355;BME280;46198;51.464;-0.066;2023-04-22T02:13:03;100617.38;;;5.66;100.00
60355;BME280;46198;51.464;-0.066;2023-04-22T02:15:32;100624.19;;;5.62;100.00
60355;BME280;46198;51.464;-0.066;2023-04-22T02:18:01;100619.44;;;5.64;100.00
60355;BME280;46198;51.464;-0.066;2023-04-22T02:20:29;100613.22;;;5.64;100.00
60355;BME280;46198;51.464;-0.066;2023-04-22T02:22:57;100622.78;;;5.66;100.00
60355;BME280;46198;51.464;-0.066;2023-04-22T02:25:26;100621.56;;;5.69;100.00
60355;BME280;46198;51.464;-0.066;2023-04-22T02:27:55;100616.81;;;5.71;100.00
60355;BME280;46198;51.464;-0.066;2023-04-22T02:30:23;100617.81;;;5.70;100.00
60355;BME280;46198;51.464;-0.066;2023-04-22T02:32:53;100612.00;;;5.66;100.00
60355;BME280;46198;51.464;-0.066;2023-04-22T02:35:21;100606.63;;;5.66;100.00
60355;BME280;46198;51.464;-0.066;2023-04-22T02:37:50;100607.25;;;5.68;100.00
60355;BME280;46198;51.464;-0.066;2023-04-22T02:40:20;100608.72;;;5.71;100.00
60355;BME280;46198;51.464;-0.066;2023-04-22T02:42:50;100605.84;;;5.72;100.00
60355;BME280;46198;51.464;-0.066;2023-04-22T02:45:19;100592.00;;;5.75;100.00
60355;BME280;46198;51.464;-0.066;2023-04-22T02:47:47;100593.00;;;5.74;100.00
60355;BME280;46198;51.464;-0.066;2023-04-22T02:50:17;100585.97;;;5.73;100.00
60355;BME280;46198;51.464;-0.066;2023-04-22T02:52:45;100585.56;;;5.76;100.00
60355;BME280;46198;51.464;-0.066;2023-04-22T02:55:13;100593.25;;;5.80;100.00
60355;BME280;46198;51.464;-0.066;2023-04-22T02:57:41;100578.13;;;5.78;100.00
60355;BME280;46198;51.464;-0.066;2023-04-22T03:00:09;100575.44;;;5.78;100.00
60355;BME280;46198;51.464;-0.066;2023-04-22T03:02:38;100581.44;;;5.81;100.00
60355;BME280;46198;51.464;-0.066;2023-04-22T03:05:12;100581.09;;;5.84;100.00
60355;BME280;46198;51.464;-0.066;2023-04-22T03:07:41;100573.19;;;5.82;100.00
60355;BME280;46198;51.464;-0.066;2023-04-22T03:10:10;100572.53;;;5.80;100.00
60355;BME280;46198;51.464;-0.066;2023-04-22T03:16:25;100555.94;;;5.76;100.00
60355;BME280;46198;51.464;-0.066;2023-04-22T03:18:55;100560.28;;;5.77;100.00
60355;BME280;46198;51.464;-0.066;2023-04-22T03:21:23;100549.91;;;5.74;100.00
60355;BME280;46198;51.464;-0.066;2023-04-22T03:24:18;100549.91;;;5.74;100.00
60355;BME280;46198;51.464;-0.066;2023-04-22T03:26:50;100549.25;;;5.72;100.00
60355;BME280;46198;51.464;-0.066;2023-04-22T03:29:18;100540.75;;;5.69;100.00
60355;BME280;46198;51.464;-0.066;2023-04-22T03:32:12;100537.41;;;5.67;100.00
60355;BME280;46198;51.464;-0.066;2023-04-22T03:34:41;100535.31;;;5.62;100.00
60355;BME280;46198;51.464;-0.066;2023-04-22T03:37:09;100536.72;;;5.58;100.00
60355;BME280;46198;51.464;-0.066;2023-04-22T03:39:38;100536.47;;;5.53;100.00
60355;BME280;46198;51.464;-0.066;2023-04-22T03:42:09;100542.25;;;5.50;100.00
60355;BME280;46198;51.464;-0.066;2023-04-22T03:44:41;100552.38;;;5.48;100.00
60355;BME280;46198;51.464;-0.066;2023-04-22T03:47:09;100542.19;;;5.43;100.00
60355;BME280;46198;51.464;-0.066;2023-04-22T03:49:44;100547.13;;;5.40;100.00
60355;BME280;46198;51.464;-0.066;2023-04-22T03:52:12;100541.72;;;5.40;100.00
60355;BME280;46198;51.464;-0.066;2023-04-22T03:54:48;100540.06;;;5.39;100.00
60355;BME280;46198;51.464;-0.066;2023-04-22T03:57:16;100539.03;;;5.40;100.00
60355;BME280;46198;51.464;-0.066;2023-04-22T03:59:45;100530.97;;;5.40;100.00
60355;BME280;46198;51.464;-0.066;2023-04-22T04:02:13;100516.66;;;5.39;100.00
60355;BME280;46198;51.464;-0.066;2023-04-22T04:04:41;100526.63;;;5.39;100.00
60355;BME280;46198;51.464;-0.066;2023-04-22T04:07:10;100522.25;;;5.38;100.00
60355;BME280;46198;51.464;-0.066;2023-04-22T04:09:38;100508.97;;;5.36;100.00
60355;BME280;46198;51.464;-0.066;2023-04-22T04:12:08;100515.84;;;5.39;100.00
60355;BME280;46198;51.464;-0.066;2023-04-22T04:14:41;100515.84;;;5.39;100.00
60355;BME280;46198;51.464;-0.066;2023-04-22T04:17:13;100524.75;;;5.39;100.00
60355;BME280;46198;51.464;-0.066;2023-04-22T04:19:41;100523.53;;;5.42;100.00
60355;BME280;46198;51.464;-0.066;2023-04-22T04:22:09;100521.88;;;5.41;100.00
60355;BME280;46198;51.464;-0.066;2023-04-22T04:24:47;100533.06;;;5.44;100.00
60355;BME280;46198;51.464;-0.066;2023-04-22T04:27:21;100529.75;;;5.42;100.00
60355;BME280;46198;51.464;-0.066;2023-04-22T04:29:52;100516.28;;;5.42;100.00
60355;BME280;46198;51.464;-0.066;2023-04-22T04:32:36;100515.44;;;5.42;100.00
60355;BME280;46198;51.464;-0.066;2023-04-22T04:35:08;100530.56;;;5.43;100.00
60355;BME280;46198;51.464;-0.066;2023-04-22T04:37:41;100515.44;;;5.42;100.00
60355;BME280;46198;51.464;-0.066;2023-04-22T04:40:34;100508.84;;;5.44;100.00
60355;BME280;46198;51.464;-0.066;2023-04-22T04:43:11;100513.00;;;5.47;100.00
60355;BME280;46198;51.464;-0.066;2023-04-22T04:45:47;100515.72;;;5.47;100.00
60355;BME280;46198;51.464;-0.066;2023-04-22T04:48:22;100512.19;;;5.46;100.00
60355;BME280;46198;51.464;-0.066;2023-04-22T04:50:58;100508.28;;;5.49;100.00
60355;BME280;46198;51.464;-0.066;2023-04-22T04:53:30;100506.59;;;5.48;100.00
60355;BME280;46198;51.464;-0.066;2023-04-22T04:55:58;100512.63;;;5.50;100.00
60355;BME280;46198;51.464;-0.066;2023-04-22T04:58:28;100515.56;;;5.55;100.00
60355;BME280;46198;51.464;-0.066;2023-04-22T05:01:14;100511.22;;;5.54;100.00
60355;BME280;46198;51.464;-0.066;2023-04-22T05:03:43;100515.56;;;5.55;100.00
60355;BME280;46198;51.464;-0.066;2023-04-22T05:06:14;100514.53;;;5.56;100.00
60355;BME280;46198;51.464;-0.066;2023-04-22T05:08:47;100519.56;;;5.59;100.00
60355;BME280;46198;51.464;-0.066;2023-04-22T05:11:15;100512.47;;;5.58;100.00
60355;BME280;46198;51.464;-0.066;2023-04-22T05:13:47;100517.06;;;5.64;100.00
60355;BME280;46198;51.464;-0.066;2023-04-22T05:16:21;100517.06;;;5.64;100.00
60355;BME280;46198;51.464;-0.066;2023-04-22T05:18:49;100521.72;;;5.70;100.00
60355;BME280;46198;51.464;-0.066;2023-04-22T05:21:17;100518.78;;;5.72;100.00
60355;BME280;46198;51.464;-0.066;2023-04-22T05:23:46;100513.00;;;5.75;100.00
60355;BME280;46198;51.464;-0.066;2023-04-22T05:26:14;100504.75;;;5.76;100.00
60355;BME280;46198;51.464;-0.066;2023-04-22T05:28:45;100501.84;;;5.78;100.00
60355;BME280;46198;51.464;-0.066;2023-04-22T05:31:15;100498.97;;;5.80;100.00
60355;BME280;46198;51.464;-0.066;2023-04-22T05:33:44;100498.16;;;5.86;100.00
60355;BME280;46198;51.464;-0.066;2023-04-22T05:36:12;100502.53;;;5.87;100.00
60355;BME280;46198;51.464;-0.066;2023-04-22T05:38:40;100511.25;;;5.89;100.00
60355;BME280;46198;51.464;-0.066;2023-04-22T05:41:08;100510.22;;;5.90;100.00
60355;BME280;46198;51.464;-0.066;2023-04-22T05:43:36;100506.13;;;5.94;100.00
60355;BME280;46198;51.464;-0.066;2023-04-22T05:46:09;100516.09;;;5.93;100.00
60355;BME280;46198;51.464;-0.066;2023-04-22T05:48:41;100519.41;;;5.95;100.00
60355;BME280;46198;51.464;-0.066;2023-04-22T05:51:23;100526.06;;;5.99;100.00
60355;BME280;46198;51.464;-0.066;2023-04-22T05:53:51;100526.31;;;6.05;100.00
60355;BME280;46198;51.464;-0.066;2023-04-22T05:56:19;100520.72;;;6.06;100.00
60355;BME280;46198;51.464;-0.066;2023-04-22T05:58:47;100507.91;;;6.08;100.00
60355;BME280;46198;51.464;-0.066;2023-04-22T06:01:20;100502.09;;;6.11;100.00
60355;BME280;46198;51.464;-0.066;2023-04-22T06:03:56;100499.25;;;6.19;100.00
60355;BME280;46198;51.464;-0.066;2023-04-22T06:06:25;100491.59;;;6.23;100.00
60355;BME280;46198;51.464;-0.066;2023-04-22T06:08:53;100502.19;;;6.25;100.00
60355;BME280;46198;51.464;-0.066;2023-04-22T06:11:21;100494.69;;;6.27;100.00
60355;BME280;46198;51.464;-0.066;2023-04-22T06:13:49;100496.63;;;6.33;100.00
60355;BME280;46198;51.464;-0.066;2023-04-22T06:16:17;100491.25;;;6.39;100.00
60355;BME280;46198;51.464;-0.066;2023-04-22T06:18:45;100490.66;;;6.44;100.00
60355;BME280;46198;51.464;-0.066;2023-04-22T06:21:15;100501.03;;;6.47;100.00
60355;BME280;46198;51.464;-0.066;2023-04-22T06:28:35;100495.09;;;6.65;100.00
60355;BME280;46198;51.464;-0.066;2023-04-22T06:31:09;100498.84;;;6.71;100.00
60355;BME280;46198;51.464;-0.066;2023-04-22T06:33:37;100497.38;;;6.75;100.00
60355;BME280;46198;51.464;-0.066;2023-04-22T06:36:06;100509.47;;;6.79;100.00
60355;BME280;46198;51.464;-0.066;2023-04-22T06:38:37;100505.72;;;6.86;100.00
60355;BME280;46198;51.464;-0.066;2023-04-22T06:41:37;100509.91;;;6.96;100.00
60355;BME280;46198;51.464;-0.066;2023-04-22T06:44:20;100506.63;;;7.00;100.00
60355;BME280;46198;51.464;-0.066;2023-04-22T06:47:25;100503.09;;;7.06;100.00
60355;BME280;46198;51.464;-0.066;2023-04-22T06:50:09;100498.91;;;7.10;100.00
60355;BME280;46198;51.464;-0.066;2023-04-22T06:52:44;100518.25;;;7.14;100.00
60355;BME280;46198;51.464;-0.066;2023-04-22T06:55:14;100518.69;;;7.18;100.00
60355;BME280;46198;51.464;-0.066;2023-04-22T06:57:42;100525.94;;;7.24;100.00
60355;BME280;46198;51.464;-0.066;2023-04-22T07:00:11;100524.31;;;7.36;100.00
60355;BME280;46198;51.464;-0.066;2023-04-22T07:02:40;100518.28;;;7.41;100.00
60355;BME280;46198;51.464;-0.066;2023-04-22T07:05:08;100515.81;;;7.52;100.00
60355;BME280;46198;51.464;-0.066;2023-04-22T07:07:36;100517.25;;;7.75;100.00
60355;BME280;46198;51.464;-0.066;2023-04-22T07:10:06;100517.84;;;7.84;100.00
60355;BME280;46198;51.464;-0.066;2023-04-22T07:12:42;100524.06;;;7.97;100.00
60355;BME280;46198;51.464;-0.066;2023-04-22T07:15:11;100519.28;;;7.99;100.00
60355;BME280;46198;51.464;-0.066;2023-04-22T07:17:39;100528.25;;;8.07;100.00
60355;BME280;46198;51.464;-0.066;2023-04-22T07:20:08;100530.50;;;8.16;100.00
60355;BME280;46198;51.464;-0.066;2023-04-22T07:22:36;100533.19;;;8.23;100.00
60355;BME280;46198;51.464;-0.066;2023-04-22T07:25:04;100532.97;;;8.31;100.00
60355;BME280;46198;51.464;-0.066;2023-04-22T07:27:33;100532.53;;;8.34;100.00
60355;BME280;46198;51.464;-0.066;2023-04-22T07:30:06;100531.72;;;8.40;100.00
60355;BME280;46198;51.464;-0.066;2023-04-22T07:32:34;100522.13;;;8.45;100.00
60355;BME280;46198;51.464;-0.066;2023-04-22T07:35:02;100523.78;;;8.52;100.00
60355;BME280;46198;51.464;-0.066;2023-04-22T07:37:30;100531.03;;;8.52;100.00
60355;BME280;46198;51.464;-0.066;2023-04-22T07:39:58;100524.56;;;8.59;100.00
60355;BME280;46198;51.464;-0.066;2023-04-22T07:42:26;100528.47;;;8.70;100.00
60355;BME280;46198;51.464;-0.066;2023-04-22T07:44:54;100525.97;;;8.75;100.00
60355;BME280;46198;51.464;-0.066;2023-04-22T07:47:24;100521.94;;;8.84;100.00
60355;BME280;46198;51.464;-0.066;2023-04-22T07:49:52;100520.09;;;8.78;100.00
60355;BME280;46198;51.464;-0.066;2023-04-22T07:52:20;100521.88;;;8.98;100.00
60355;BME280;46198;51.464;-0.066;2023-04-22T07:54:48;100522.88;;;9.10;100.00
60355;BME280;46198;51.464;-0.066;2023-04-22T07:57:16;100517.44;;;9.10;100.00
60355;BME280;46198;51.464;-0.066;2023-04-22T07:59:47;100518.66;;;9.14;100.00
60355;BME280;46198;51.464;-0.066;2023-04-22T08:02:15;100521.34;;;9.21;100.00
60355;BME280;46198;51.464;-0.066;2023-04-22T08:04:44;100515.59;;;9.36;100.00
60355;BME280;46198;51.464;-0.066;2023-04-22T08:07:13;100516.84;;;9.40;100.00
60355;BME280;46198;51.464;-0.066;2023-04-22T08:09:59;100512.59;;;9.50;100.00
60355;BME280;46198;51.464;-0.066;2023-04-22T08:12:28;100515.50;;;9.49;100.00
60355;BME280;46198;51.464;-0.066;2023-04-22T08:14:56;100501.91;;;9.56;100.00
60355;BME280;46198;51.464;-0.066;2023-04-22T08:17:24;100500.41;;;9.60;100.00
60355;BME280;46198;51.464;-0.066;2023-04-22T08:19:53;100495.69;;;9.73;100.00
60355;BME280;46198;51.464;-0.066;2023-04-22T08:22:21;100505.25;;;9.76;100.00
60355;BME280;46198;51.464;-0.066;2023-04-22T08:24:51;100507.75;;;9.77;100.00
60355;BME280;46198;51.464;-0.066;2023-04-22T08:27:20;100496.38;;;9.87;100.00
60355;BME280;46198;51.464;-0.066;2023-04-22T08:29:48;100490.97;;;9.87;100.00
60355;BME280;46198;51.464;-0.066;2023-04-22T08:32:16;100490.00;;;10.00;100.00
60355;BME280;46198;51.464;-0.066;2023-04-22T08:34:45;100490.91;;;10.12;100.00
60355;BME280;46198;51.464;-0.066;2023-04-22T08:37:17;100489.47;;;10.35;100.00
60355;BME280;46198;51.464;-0.066;2023-04-22T08:39:45;100488.34;;;10.42;100.00
60355;BME280;46198;51.464;-0.066;2023-04-22T08:42:15;100494.34;;;10.45;100.00
60355;BME280;46198;51.464;-0.066;2023-04-22T08:44:44;100488.16;;;10.56;100.00
60355;BME280;46198;51.464;-0.066;2023-04-22T08:47:13;100493.59;;;10.56;100.00
60355;BME280;46198;51.464;-0.066;2023-04-22T08:49:42;100483.25;;;10.64;100.00
60355;BME280;46198;51.464;-0.066;2023-04-22T08:52:10;100479.28;;;10.49;100.00
60355;BME280;46198;51.464;-0.066;2023-04-22T08:54:42;100474.78;;;10.73;100.00
60355;BME280;46198;51.464;-0.066;2023-04-22T08:57:11;100476.94;;;10.82;100.00
60355;BME280;46198;51.464;-0.066;2023-04-22T08:59:40;100472.44;;;10.76;100.00
60355;BME280;46198;51.464;-0.066;2023-04-22T09:02:13;100471.50;;;10.82;100.00
60355;BME280;46198;51.464;-0.066;2023-04-22T09:04:45;100465.88;;;10.96;100.00
60355;BME280;46198;51.464;-0.066;2023-04-22T09:07:39;100467.56;;;10.97;100.00
60355;BME280;46198;51.464;-0.066;2023-04-22T09:10:09;100459.28;;;10.92;100.00
60355;BME280;46198;51.464;-0.066;2023-04-22T09:12:39;100464.47;;;10.93;100.00
60355;BME280;46198;51.464;-0.066;2023-04-22T09:15:10;100460.84;;;10.99;100.00
60355;BME280;46198;51.464;-0.066;2023-04-22T09:17:39;100459.63;;;10.95;100.00
60355;BME280;46198;51.464;-0.066;2023-04-22T09:20:09;100457.13;;;10.94;100.00
60355;BME280;46198;51.464;-0.066;2023-04-22T09:22:40;100458.16;;;10.81;100.00
60355;BME280;46198;51.464;-0.066;2023-04-22T09:25:16;100453.34;;;10.83;100.00
60355;BME280;46198;51.464;-0.066;2023-04-22T09:27:47;100447.13;;;10.94;100.00
60355;BME280;46198;51.464;-0.066;2023-04-22T09:30:16;100455.47;;;10.93;100.00
60355;BME280;46198;51.464;-0.066;2023-04-22T09:32:53;100456.47;;;10.68;100.00
60355;BME280;46198;51.464;-0.066;2023-04-22T09:35:24;100455.06;;;11.07;100.00
60355;BME280;46198;51.464;-0.066;2023-04-22T09:37:52;100453.78;;;11.22;100.00
60355;BME280;46198;51.464;-0.066;2023-04-22T09:40:23;100443.66;;;11.41;100.00
60355;BME280;46198;51.464;-0.066;2023-04-22T09:42:52;100437.75;;;11.56;100.00
60355;BME280;46198;51.464;-0.066;2023-04-22T09:45:25;100438.78;;;11.31;100.00
60355;BME280;46198;51.464;-0.066;2023-04-22T09:47:55;100440.00;;;11.82;100.00
60355;BME280;46198;51.464;-0.066;2023-04-22T09:50:24;100442.13;;;11.80;100.00
60355;BME280;46198;51.464;-0.066;2023-04-22T09:52:54;100442.97;;;11.92;100.00
60355;BME280;46198;51.464;-0.066;2023-04-22T09:55:26;100443.81;;;11.93;100.00
60355;BME280;46198;51.464;-0.066;2023-04-22T09:57:56;100431.47;;;12.14;100.00
60355;BME280;46198;51.464;-0.066;2023-04-22T10:00:27;100440.94;;;12.00;100.00
60355;BME280;46198;51.464;-0.066;2023-04-22T10:02:55;100432.22;;;11.97;100.00
60355;BME280;46198;51.464;-0.066;2023-04-22T10:05:24;100429.91;;;12.18;100.00
60355;BME280;46198;51.464;-0.066;2023-04-22T10:07:52;100439.56;;;12.37;100.00
60355;BME280;46198;51.464;-0.066;2023-04-22T10:10:21;100432.50;;;12.65;100.00
60355;BME280;46198;51.464;-0.066;2023-04-22T10:12:51;100437.59;;;12.90;100.00
60355;BME280;46198;51.464;-0.066;2023-04-22T10:15:20;100438.50;;;13.13;100.00
60355;BME280;46198;51.464;-0.066;2023-04-22T10:17:52;100441.97;;;13.08;100.00
60355;BME280;46198;51.464;-0.066;2023-04-22T10:20:21;100437.41;;;12.97;100.00
60355;BME280;46198;51.464;-0.066;2023-04-22T10:22:51;100441.72;;;12.93;100.00
60355;BME280;46198;51.464;-0.066;2023-04-22T10:25:21;100436.13;;;13.16;100.00
60355;BME280;46198;51.464;-0.066;2023-04-22T10:28:00;100430.72;;;13.50;100.00
60355;BME280;46198;51.464;-0.066;2023-04-22T10:30:30;100432.34;;;13.51;100.00
60355;BME280;46198;51.464;-0.066;2023-04-22T10:36:09;100432.59;;;14.05;100.00
60355;BME280;46198;51.464;-0.066;2023-04-22T10:38:39;100433.16;;;14.29;100.00
60355;BME280;46198;51.464;-0.066;2023-04-22T10:41:12;100428.31;;;14.53;100.00
60355;BME280;46198;51.464;-0.066;2023-04-22T10:43:44;100423.84;;;14.47;100.00
60355;BME280;46198;51.464;-0.066;2023-04-22T10:46:55;100421.09;;;14.47;100.00
60355;BME280;46198;51.464;-0.066;2023-04-22T10:49:24;100425.75;;;14.47;100.00
60355;BME280;46198;51.464;-0.066;2023-04-22T10:51:54;100419.25;;;14.75;100.00
60355;BME280;46198;51.464;-0.066;2023-04-22T10:54:58;100419.94;;;14.65;100.00
60355;BME280;46198;51.464;-0.066;2023-04-22T10:57:33;100422.72;;;14.97;100.00
60355;BME280;46198;51.464;-0.066;2023-04-22T11:00:31;100417.38;;;15.07;100.00
60355;BME280;46198;51.464;-0.066;2023-04-22T11:03:25;100421.69;;;15.03;100.00
60355;BME280;46198;51.464;-0.066;2023-04-22T11:06:14;100425.53;;;15.02;100.00
60355;BME280;46198;51.464;-0.066;2023-04-22T11:08:43;100424.41;;;14.98;100.00
60355;BME280;46198;51.464;-0.066;2023-04-22T11:11:12;100428.72;;;14.67;98.89
60355;BME280;46198;51.464;-0.066;2023-04-22T11:13:41;100431.66;;;14.60;100.00
60355;BME280;46198;51.464;-0.066;2023-04-22T11:16:11;100434.00;;;14.74;100.00
60355;BME280;46198;51.464;-0.066;2023-04-22T11:18:39;100420.28;;;14.96;100.00
60355;BME280;46198;51.464;-0.066;2023-04-22T11:21:07;100437.38;;;14.59;97.30
60355;BME280;46198;51.464;-0.066;2023-04-22T11:23:36;100433.06;;;14.90;100.00
60355;BME280;46198;51.464;-0.066;2023-04-22T11:26:05;100426.22;;;15.20;100.00
60355;BME280;46198;51.464;-0.066;2023-04-22T11:28:33;100432.47;;;14.39;93.90
60355;BME280;46198;51.464;-0.066;2023-04-22T11:31:06;100437.88;;;14.34;100.00
60355;BME280;46198;51.464;-0.066;2023-04-22T11:33:37;100426.13;;;15.10;100.00
60355;BME280;46198;51.464;-0.066;2023-04-22T11:36:08;100425.63;;;14.58;89.36
60355;BME280;46198;51.464;-0.066;2023-04-22T11:38:36;100439.34;;;14.63;91.42
60355;BME280;46198;51.464;-0.066;2023-04-22T11:41:05;100433.38;;;14.67;95.39
60355;BME280;46198;51.464;-0.066;2023-04-22T11:43:33;100436.63;;;14.91;93.34
60355;BME280;46198;51.464;-0.066;2023-04-22T11:46:01;100431.81;;;15.03;89.93
60355;BME280;46198;51.464;-0.066;2023-04-22T11:48:31;100443.84;;;14.75;87.93
60355;BME280;46198;51.464;-0.066;2023-04-22T11:51:10;100434.00;;;14.30;85.47
60355;BME280;46198;51.464;-0.066;2023-04-22T11:53:38;100429.97;;;14.81;93.86
60355;BME280;46198;51.464;-0.066;2023-04-22T11:56:16;100438.63;;;14.73;79.99
60355;BME280;46198;51.464;-0.066;2023-04-22T11:58:44;100429.25;;;14.91;90.86
60355;BME280;46198;51.464;-0.066;2023-04-22T12:01:14;100428.78;;;14.99;76.42
60355;BME280;46198;51.464;-0.066;2023-04-22T12:03:42;100426.47;;;14.86;78.79
60355;BME280;46198;51.464;-0.066;2023-04-22T12:06:12;100431.63;;;14.16;67.72
60355;BME280;46198;51.464;-0.066;2023-04-22T12:08:40;100431.09;;;14.14;66.84
60355;BME280;46198;51.464;-0.066;2023-04-22T12:11:11;100431.22;;;14.69;68.59
60355;BME280;46198;51.464;-0.066;2023-04-22T12:13:41;100431.34;;;14.84;67.79
60355;BME280;46198;51.464;-0.066;2023-04-22T12:16:10;100435.75;;;14.85;67.08
60355;BME280;46198;51.464;-0.066;2023-04-22T12:18:40;100436.91;;;14.45;62.94
60355;BME280;46198;51.464;-0.066;2023-04-22T12:21:09;100438.94;;;14.77;64.30
60355;BME280;46198;51.464;-0.066;2023-04-22T12:23:43;100428.72;;;15.59;68.08
60355;BME280;46198;51.464;-0.066;2023-04-22T12:26:12;100425.09;;;15.90;62.30
60355;BME280;46198;51.464;-0.066;2023-04-22T12:28:41;100429.56;;;16.02;59.89
60355;BME280;46198;51.464;-0.066;2023-04-22T12:31:10;100423.53;;;16.00;59.89
60355;BME280;46198;51.464;-0.066;2023-04-22T12:33:39;100420.38;;;15.76;62.40
60355;BME280;46198;51.464;-0.066;2023-04-22T12:36:08;100422.34;;;15.85;60.01
60355;BME280;46198;51.464;-0.066;2023-04-22T12:38:37;100418.03;;;16.00;66.00
60355;BME280;46198;51.464;-0.066;2023-04-22T12:41:08;100425.66;;;15.92;56.21
60355;BME280;46198;51.464;-0.066;2023-04-22T12:43:36;100434.09;;;15.48;58.20
60355;BME280;46198;51.464;-0.066;2023-04-22T12:46:06;100429.59;;;15.32;54.84
60355;BME280;46198;51.464;-0.066;2023-04-22T12:48:35;100429.00;;;15.25;58.89
60355;BME280;46198;51.464;-0.066;2023-04-22T12:51:04;100427.00;;;15.47;59.72
60355;BME280;46198;51.464;-0.066;2023-04-22T12:53:33;100423.94;;;15.12;54.11
60355;BME280;46198;51.464;-0.066;2023-04-22T12:56:01;100428.63;;;15.48;58.67
60355;BME280;46198;51.464;-0.066;2023-04-22T12:58:31;100428.09;;;15.51;55.25
60355;BME280;46198;51.464;-0.066;2023-04-22T13:00:59;100426.88;;;15.32;58.50
60355;BME280;46198;51.464;-0.066;2023-04-22T13:03:27;100427.44;;;15.34;59.89
60355;BME280;46198;51.464;-0.066;2023-04-22T13:05:55;100433.88;;;15.18;60.55
60355;BME280;46198;51.464;-0.066;2023-04-22T13:08:23;100445.56;;;15.13;59.23